sensor_id;sensor_type;location;lat;lon;timestamp;temperature;humidity
38325;DHT22;24126;52.672;13.622;2022-09-01T00:00:11;20.50;55.00
38325;DHT22;24126;52.672;13.622;2022-09-01T00:02:39;20.50;55.10
38325;DHT22;24126;52.672;13.622;2022-09-01T00:05:07;20.50;55.00
38325;DHT22;24126;52.672;13.622;2022-09-01T00:07:35;20.50;55.10
38325;DHT22;24126;52.672;13.622;2022-09-01T00:10:04;20.50;55.10
38325;DHT22;24126;52.672;13.622;2022-09-01T00:12:32;20.50;55.30
38325;DHT22;24126;52.672;13.622;2022-09-01T00:14:59;20.40;55.20
38325;DHT22;24126;52.672;13.622;2022-09-01T00:17:26;20.40;55.30
38325;DHT22;24126;52.672;13.622;2022-09-01T00:19:55;20.40;55.30
38325;DHT22;24126;52.672;13.622;2022-09-01T00:22:22;20.40;55.40
38325;DHT22;24126;52.672;13.622;2022-09-01T00:24:49;20.30;55.40
38325;DHT22;24126;52.672;13.622;2022-09-01T00:27:16;20.30;55.50
38325;DHT22;24126;52.672;13.622;2022-09-01T00:29:44;20.30;55.60
38325;DHT22;24126;52.672;13.622;2022-09-01T00:32:11;20.20;55.50
38325;DHT22;24126;52.672;13.622;2022-09-01T00:34:39;20.20;55.70
38325;DHT22;24126;52.672;13.622;2022-09-01T00:37:06;20.10;55.80
38325;DHT22;24126;52.672;13.622;2022-09-01T00:39:33;20.10;56.00
38325;DHT22;24126;52.672;13.622;2022-09-01T00:42:01;20.00;56.00
38325;DHT22;24126;52.672;13.622;2022-09-01T00:44:28;20.00;56.20
38325;DHT22;24126;52.672;13.622;2022-09-01T00:46:56;19.90;56.40
38325;DHT22;24126;52.672;13.622;2022-09-01T00:49:31;19.90;56.60
38325;DHT22;24126;52.672;13.622;2022-09-01T00:52:03;19.80;56.70
38325;DHT22;24126;52.672;13.622;2022-09-01T00:54:35;19.70;56.90
38325;DHT22;24126;52.672;13.622;2022-09-01T00:57:04;19.70;57.10
38325;DHT22;24126;52.672;13.622;2022-09-01T00:59:32;19.60;57.20
38325;DHT22;24126;52.672;13.622;2022-09-01T01:02:01;19.60;57.30
38325;DHT22;24126;52.672;13.622;2022-09-01T01:04:28;19.60;57.40
38325;DHT22;24126;52.672;13.622;2022-09-01T01:06:56;19.60;57.60
38325;DHT22;24126;52.672;13.622;2022-09-01T01:09:27;19.60;57.70
38325;DHT22;24126;52.672;13.622;2022-09-01T01:11:55;19.50;57.80
38325;DHT22;24126;52.672;13.622;2022-09-01T01:14:25;19.50;57.80
38325;DHT22;24126;52.672;13.622;2022-09-01T01:16:53;19.40;57.90
38325;DHT22;24126;52.672;13.622;2022-09-01T01:19:22;19.40;57.90
38325;DHT22;24126;52.672;13.622;2022-09-01T01:22:09;19.40;58.00
38325;DHT22;24126;52.672;13.622;2022-09-01T01:24:56;19.40;58.10
38325;DHT22;24126;52.672;13.622;2022-09-01T01:27:23;19.40;58.20
38325;DHT22;24126;52.672;13.622;2022-09-01T01:29:51;19.40;58.30
38325;DHT22;24126;52.672;13.622;2022-09-01T01:32:19;19.30;58.40
38325;DHT22;24126;52.672;13.622;2022-09-01T01:34:46;19.40;58.40
38325;DHT22;24126;52.672;13.622;2022-09-01T01:37:14;19.30;58.50
38325;DHT22;24126;52.672;13.622;2022-09-01T01:39:42;19.30;58.60
38325;DHT22;24126;52.672;13.622;2022-09-01T01:42:10;19.30;58.70
38325;DHT22;24126;52.672;13.622;2022-09-01T01:44:37;19.20;58.70
38325;DHT22;24126;52.672;13.622;2022-09-01T01:47:06;19.20;58.70
38325;DHT22;24126;52.672;13.622;2022-09-01T01:49:38;19.20;58.80
38325;DHT22;24126;52.672;13.622;2022-09-01T01:52:09;19.30;59.00
38325;DHT22;24126;52.672;13.622;2022-09-01T01:54:39;19.20;59.10
38325;DHT22;24126;52.672;13.622;2022-09-01T01:57:07;19.30;59.10
38325;DHT22;24126;52.672;13.622;2022-09-01T01:59:34;19.20;59.10
38325;DHT22;24126;52.672;13.622;2022-09-01T02:02:03;19.20;59.20
38325;DHT22;24126;52.672;13.622;2022-09-01T02:04:33;19.20;59.30
38325;DHT22;24126;52.672;13.622;2022-09-01T02:07:07;19.20;59.30
38325;DHT22;24126;52.672;13.622;2022-09-01T02:09:38;19.10;59.40
38325;DHT22;24126;52.672;13.622;2022-09-01T02:12:07;19.20;59.50
38325;DHT22;24126;52.672;13.622;2022-09-01T02:14:35;19.10;59.60
38325;DHT22;24126;52.672;13.622;2022-09-01T02:17:03;19.10;59.70
38325;DHT22;24126;52.672;13.622;2022-09-01T02:19:33;19.10;59.70
38325;DHT22;24126;52.672;13.622;2022-09-01T02:22:03;19.10;59.80
38325;DHT22;24126;52.672;13.622;2022-09-01T02:24:30;19.00;59.90
38325;DHT22;24126;52.672;13.622;2022-09-01T02:26:57;19.00;60.00
38325;DHT22;24126;52.672;13.622;2022-09-01T02:29:27;18.90;60.10
38325;DHT22;24126;52.672;13.622;2022-09-01T02:31:55;18.90;60.20
38325;DHT22;24126;52.672;13.622;2022-09-01T02:34:23;18.80;60.20
38325;DHT22;24126;52.672;13.622;2022-09-01T02:36:54;18.90;60.30
38325;DHT22;24126;52.672;13.622;2022-09-01T02:39:27;18.80;60.50
38325;DHT22;24126;52.672;13.622;2022-09-01T02:41:57;18.80;60.60
38325;DHT22;24126;52.672;13.622;2022-09-01T02:44:28;18.70;60.70
38325;DHT22;24126;52.672;13.622;2022-09-01T02:46:57;18.70;60.90
38325;DHT22;24126;52.672;13.622;2022-09-01T02:49:26;18.70;61.00
38325;DHT22;24126;52.672;13.622;2022-09-01T02:51:55;18.60;61.10
38325;DHT22;24126;52.672;13.622;2022-09-01T02:54:24;18.60;61.20
38325;DHT22;24126;52.672;13.622;2022-09-01T02:56:52;18.60;61.20
38325;DHT22;24126;52.672;13.622;2022-09-01T02:59:23;18.60;61.30
38325;DHT22;24126;52.672;13.622;2022-09-01T03:01:51;18.60;61.30
38325;DHT22;24126;52.672;13.622;2022-09-01T03:04:20;18.50;61.30
38325;DHT22;24126;52.672;13.622;2022-09-01T03:06:47;18.50;61.40
38325;DHT22;24126;52.672;13.622;2022-09-01T03:09:17;18.50;61.50
38325;DHT22;24126;52.672;13.622;2022-09-01T03:11:46;18.40;61.50
38325;DHT22;24126;52.672;13.622;2022-09-01T03:14:14;18.40;61.60
38325;DHT22;24126;52.672;13.622;2022-09-01T03:16:42;18.40;61.70
38325;DHT22;24126;52.672;13.622;2022-09-01T03:19:09;18.40;61.70
38325;DHT22;24126;52.672;13.622;2022-09-01T03:21:39;18.30;61.80
38325;DHT22;24126;52.672;13.622;2022-09-01T03:24:07;18.30;62.00
38325;DHT22;24126;52.672;13.622;2022-09-01T03:26:35;18.20;62.00
38325;DHT22;24126;52.672;13.622;2022-09-01T03:29:02;18.20;62.10
38325;DHT22;24126;52.672;13.622;2022-09-01T03:31:31;18.20;62.20
38325;DHT22;24126;52.672;13.622;2022-09-01T03:34:01;18.10;62.20
38325;DHT22;24126;52.672;13.622;2022-09-01T03:36:32;18.10;62.40
38325;DHT22;24126;52.672;13.622;2022-09-01T03:38:59;18.10;62.40
38325;DHT22;24126;52.672;13.622;2022-09-01T03:41:28;18.00;62.50
38325;DHT22;24126;52.672;13.622;2022-09-01T03:43:56;18.00;62.60
38325;DHT22;24126;52.672;13.622;2022-09-01T03:46:27;18.00;62.60
38325;DHT22;24126;52.672;13.622;2022-09-01T03:48:56;18.00;62.80
38325;DHT22;24126;52.672;13.622;2022-09-01T03:51:28;17.90;62.80
38325;DHT22;24126;52.672;13.622;2022-09-01T03:53:58;17.90;63.00
38325;DHT22;24126;52.672;13.622;2022-09-01T03:56:26;17.90;63.00
38325;DHT22;24126;52.672;13.622;2022-09-01T03:58:55;17.90;63.10
38325;DHT22;24126;52.672;13.622;2022-09-01T04:01:23;17.90;63.10
38325;DHT22;24126;52.672;13.622;2022-09-01T04:03:50;17.80;63.00
38325;DHT22;24126;52.672;13.622;2022-09-01T04:06:21;17.80;63.10
38325;DHT22;24126;52.672;13.622;2022-09-01T04:08:51;17.80;63.20
38325;DHT22;24126;52.672;13.622;2022-09-01T04:11:29;17.80;63.30
38325;DHT22;24126;52.672;13.622;2022-09-01T04:13:57;17.70;63.40
38325;DHT22;24126;52.672;13.622;2022-09-01T04:16:25;17.70;63.50
38325;DHT22;24126;52.672;13.622;2022-09-01T04:19:15;17.70;63.60
38325;DHT22;24126;52.672;13.622;2022-09-01T04:21:47;17.70;63.60
38325;DHT22;24126;52.672;13.622;2022-09-01T04:24:16;17.70;63.60
38325;DHT22;24126;52.672;13.622;2022-09-01T04:26:46;17.70;63.70
38325;DHT22;24126;52.672;13.622;2022-09-01T04:29:15;17.60;63.80
38325;DHT22;24126;52.672;13.622;2022-09-01T04:31:44;17.60;63.80
38325;DHT22;24126;52.672;13.622;2022-09-01T04:34:13;17.60;64.00
38325;DHT22;24126;52.672;13.622;2022-09-01T04:36:43;17.60;64.00
38325;DHT22;24126;52.672;13.622;2022-09-01T04:39:11;17.60;64.30
38325;DHT22;24126;52.672;13.622;2022-09-01T04:41:41;17.50;64.20
38325;DHT22;24126;52.672;13.622;2022-09-01T04:44:11;17.50;64.30
38325;DHT22;24126;52.672;13.622;2022-09-01T04:46:41;17.60;64.40
38325;DHT22;24126;52.672;13.622;2022-09-01T04:49:13;17.60;64.40
38325;DHT22;24126;52.672;13.622;2022-09-01T04:51:45;17.60;64.40
38325;DHT22;24126;52.672;13.622;2022-09-01T04:54:13;17.60;64.50
38325;DHT22;24126;52.672;13.622;2022-09-01T04:56:47;17.60;64.40
38325;DHT22;24126;52.672;13.622;2022-09-01T04:59:16;17.60;64.60
38325;DHT22;24126;52.672;13.622;2022-09-01T05:01:48;17.60;64.60
38325;DHT22;24126;52.672;13.622;2022-09-01T05:04:21;17.60;64.70
38325;DHT22;24126;52.672;13.622;2022-09-01T05:06:50;17.60;64.70
38325;DHT22;24126;52.672;13.622;2022-09-01T05:09:21;17.60;64.80
38325;DHT22;24126;52.672;13.622;2022-09-01T05:11:59;17.60;64.80
38325;DHT22;24126;52.672;13.622;2022-09-01T05:14:37;17.60;64.90
38325;DHT22;24126;52.672;13.622;2022-09-01T05:17:08;17.70;65.00
38325;DHT22;24126;52.672;13.622;2022-09-01T05:19:40;17.70;65.00
38325;DHT22;24126;52.672;13.622;2022-09-01T05:22:08;17.80;65.00
38325;DHT22;24126;52.672;13.622;2022-09-01T05:24:40;17.80;64.90
38325;DHT22;24126;52.672;13.622;2022-09-01T05:27:09;17.90;64.80
38325;DHT22;24126;52.672;13.622;2022-09-01T05:29:38;17.90;64.70
38325;DHT22;24126;52.672;13.622;2022-09-01T05:32:08;18.00;64.60
38325;DHT22;24126;52.672;13.622;2022-09-01T05:34:37;18.10;64.60
38325;DHT22;24126;52.672;13.622;2022-09-01T05:37:06;18.20;64.50
38325;DHT22;24126;52.672;13.622;2022-09-01T05:39:36;18.30;64.40
38325;DHT22;24126;52.672;13.622;2022-09-01T05:42:07;18.40;64.30
38325;DHT22;24126;52.672;13.622;2022-09-01T05:44:37;18.50;64.30
38325;DHT22;24126;52.672;13.622;2022-09-01T05:47:07;18.50;64.00
38325;DHT22;24126;52.672;13.622;2022-09-01T05:49:37;18.60;63.90
38325;DHT22;24126;52.672;13.622;2022-09-01T05:52:05;18.70;63.70
38325;DHT22;24126;52.672;13.622;2022-09-01T05:54:34;18.80;63.70
38325;DHT22;24126;52.672;13.622;2022-09-01T05:57:03;18.90;63.50
38325;DHT22;24126;52.672;13.622;2022-09-01T05:59:32;19.00;63.50
38325;DHT22;24126;52.672;13.622;2022-09-01T06:02:04;19.10;63.50
38325;DHT22;24126;52.672;13.622;2022-09-01T06:04:36;19.20;63.40
38325;DHT22;24126;52.672;13.622;2022-09-01T06:07:06;19.40;63.20
38325;DHT22;24126;52.672;13.622;2022-09-01T06:09:37;19.50;63.20
38325;DHT22;24126;52.672;13.622;2022-09-01T06:12:05;19.60;62.60
38325;DHT22;24126;52.672;13.622;2022-09-01T06:14:33;19.70;62.70
38325;DHT22;24126;52.672;13.622;2022-09-01T06:17:01;19.80;62.60
38325;DHT22;24126;52.672;13.622;2022-09-01T06:19:28;20.00;62.40
38325;DHT22;24126;52.672;13.622;2022-09-01T06:21:58;20.10;62.10
38325;DHT22;24126;52.672;13.622;2022-09-01T06:24:26;20.30;61.60
38325;DHT22;24126;52.672;13.622;2022-09-01T06:26:54;20.40;61.40
38325;DHT22;24126;52.672;13.622;2022-09-01T06:29:21;20.60;60.90
38325;DHT22;24126;52.672;13.622;2022-09-01T06:31:49;20.70;60.60
38325;DHT22;24126;52.672;13.622;2022-09-01T06:34:18;20.80;60.30
38325;DHT22;24126;52.672;13.622;2022-09-01T06:36:46;21.00;59.80
38325;DHT22;24126;52.672;13.622;2022-09-01T06:39:15;21.10;59.30
38325;DHT22;24126;52.672;13.622;2022-09-01T06:41:48;21.20;59.20
38325;DHT22;24126;52.672;13.622;2022-09-01T06:44:19;21.30;58.70
38325;DHT22;24126;52.672;13.622;2022-09-01T06:46:55;21.40;58.70
38325;DHT22;24126;52.672;13.622;2022-09-01T06:49:22;21.50;58.60
38325;DHT22;24126;52.672;13.622;2022-09-01T06:51:58;21.50;58.60
38325;DHT22;24126;52.672;13.622;2022-09-01T06:54:28;21.60;58.50
38325;DHT22;24126;52.672;13.622;2022-09-01T06:57:01;21.70;58.10
38325;DHT22;24126;52.672;13.622;2022-09-01T06:59:29;21.90;58.00
38325;DHT22;24126;52.672;13.622;2022-09-01T07:01:58;21.90;57.90
38325;DHT22;24126;52.672;13.622;2022-09-01T07:04:33;22.10;57.70
38325;DHT22;24126;52.672;13.622;2022-09-01T07:07:04;22.20;57.30
38325;DHT22;24126;52.672;13.622;2022-09-01T07:09:34;22.40;56.90
38325;DHT22;24126;52.672;13.622;2022-09-01T07:12:20;22.50;56.50
38325;DHT22;24126;52.672;13.622;2022-09-01T07:14:49;22.60;56.40
38325;DHT22;24126;52.672;13.622;2022-09-01T07:17:17;22.70;56.20
38325;DHT22;24126;52.672;13.622;2022-09-01T07:19:45;22.80;56.10
38325;DHT22;24126;52.672;13.622;2022-09-01T07:22:13;22.90;55.70
38325;DHT22;24126;52.672;13.622;2022-09-01T07:24:44;22.90;55.30
38325;DHT22;24126;52.672;13.622;2022-09-01T07:27:32;23.00;55.00
38325;DHT22;24126;52.672;13.622;2022-09-01T07:30:00;23.00;54.70
38325;DHT22;24126;52.672;13.622;2022-09-01T07:32:28;23.10;54.60
38325;DHT22;24126;52.672;13.622;2022-09-01T07:34:57;23.10;54.10
38325;DHT22;24126;52.672;13.622;2022-09-01T07:37:24;23.10;54.40
38325;DHT22;24126;52.672;13.622;2022-09-01T07:39:52;23.10;54.20
38325;DHT22;24126;52.672;13.622;2022-09-01T07:42:34;23.00;54.30
38325;DHT22;24126;52.672;13.622;2022-09-01T07:45:22;23.00;54.20
38325;DHT22;24126;52.672;13.622;2022-09-01T07:47:58;23.00;53.90
38325;DHT22;24126;52.672;13.622;2022-09-01T07:50:28;22.90;53.70
38325;DHT22;24126;52.672;13.622;2022-09-01T07:52:56;22.80;53.90
38325;DHT22;24126;52.672;13.622;2022-09-01T07:55:25;22.70;54.00
38325;DHT22;24126;52.672;13.622;2022-09-01T07:57:54;22.60;54.20
38325;DHT22;24126;52.672;13.622;2022-09-01T08:00:23;22.60;54.10
38325;DHT22;24126;52.672;13.622;2022-09-01T08:02:56;22.60;54.30
38325;DHT22;24126;52.672;13.622;2022-09-01T08:05:23;22.70;54.40
38325;DHT22;24126;52.672;13.622;2022-09-01T08:07:52;22.70;54.10
38325;DHT22;24126;52.672;13.622;2022-09-01T08:10:24;22.90;54.20
38325;DHT22;24126;52.672;13.622;2022-09-01T08:12:51;23.00;53.50
38325;DHT22;24126;52.672;13.622;2022-09-01T08:15:19;23.30;53.80
38325;DHT22;24126;52.672;13.622;2022-09-01T08:17:46;23.50;52.40
38325;DHT22;24126;52.672;13.622;2022-09-01T08:20:14;23.80;52.30
38325;DHT22;24126;52.672;13.622;2022-09-01T08:23:08;24.10;51.70
38325;DHT22;24126;52.672;13.622;2022-09-01T08:25:38;24.30;51.10
38325;DHT22;24126;52.672;13.622;2022-09-01T08:28:06;24.60;50.30
38325;DHT22;24126;52.672;13.622;2022-09-01T08:30:33;24.70;50.00
38325;DHT22;24126;52.672;13.622;2022-09-01T08:33:01;24.80;49.50
38325;DHT22;24126;52.672;13.622;2022-09-01T08:35:29;24.90;49.60
38325;DHT22;24126;52.672;13.622;2022-09-01T08:37:57;25.20;49.10
38325;DHT22;24126;52.672;13.622;2022-09-01T08:40:25;25.40;48.60
38325;DHT22;24126;52.672;13.622;2022-09-01T08:42:59;25.60;48.20
38325;DHT22;24126;52.672;13.622;2022-09-01T08:45:31;25.80;48.00
38325;DHT22;24126;52.672;13.622;2022-09-01T08:48:13;26.10;47.10
38325;DHT22;24126;52.672;13.622;2022-09-01T08:50:40;26.20;46.50
38325;DHT22;24126;52.672;13.622;2022-09-01T08:55:46;26.50;45.10
38325;DHT22;24126;52.672;13.622;2022-09-01T08:58:16;26.50;44.40
38325;DHT22;24126;52.672;13.622;2022-09-01T09:01:08;26.40;45.10
38325;DHT22;24126;52.672;13.622;2022-09-01T09:06:37;26.50;44.80
38325;DHT22;24126;52.672;13.622;2022-09-01T09:09:09;26.70;43.40
38325;DHT22;24126;52.672;13.622;2022-09-01T09:16:47;26.90;42.30
38325;DHT22;24126;52.672;13.622;2022-09-01T09:19:22;27.00;41.50
38325;DHT22;24126;52.672;13.622;2022-09-01T09:21:52;27.10;41.40
38325;DHT22;24126;52.672;13.622;2022-09-01T09:26:48;27.10;41.40
38325;DHT22;24126;52.672;13.622;2022-09-01T09:29:15;27.30;41.90
38325;DHT22;24126;52.672;13.622;2022-09-01T09:31:43;27.40;41.90
38325;DHT22;24126;52.672;13.622;2022-09-01T09:34:30;27.70;41.70
38325;DHT22;24126;52.672;13.622;2022-09-01T09:37:15;27.90;41.30
38325;DHT22;24126;52.672;13.622;2022-09-01T09:39:43;28.10;41.10
38325;DHT22;24126;52.672;13.622;2022-09-01T09:42:11;28.30;40.10
38325;DHT22;24126;52.672;13.622;2022-09-01T09:44:40;28.30;39.30
38325;DHT22;24126;52.672;13.622;2022-09-01T09:47:09;28.40;39.40
38325;DHT22;24126;52.672;13.622;2022-09-01T09:49:36;28.50;38.80
38325;DHT22;24126;52.672;13.622;2022-09-01T09:54:35;28.60;37.80
38325;DHT22;24126;52.672;13.622;2022-09-01T10:04:53;28.50;37.20
38325;DHT22;24126;52.672;13.622;2022-09-01T10:07:21;28.60;37.70
38325;DHT22;24126;52.672;13.622;2022-09-01T10:09:49;28.70;36.60
38325;DHT22;24126;52.672;13.622;2022-09-01T10:12:17;28.70;36.80
38325;DHT22;24126;52.672;13.622;2022-09-01T10:17:42;28.90;36.00
38325;DHT22;24126;52.672;13.622;2022-09-01T10:20:12;28.70;36.00
38325;DHT22;24126;52.672;13.622;2022-09-01T10:22:41;28.50;35.70
38325;DHT22;24126;52.672;13.622;2022-09-01T10:25:11;28.40;36.40
38325;DHT22;24126;52.672;13.622;2022-09-01T10:27:41;28.50;36.20
38325;DHT22;24126;52.672;13.622;2022-09-01T10:30:12;28.60;35.30
38325;DHT22;24126;52.672;13.622;2022-09-01T10:32:50;28.50;35.20
38325;DHT22;24126;52.672;13.622;2022-09-01T10:35:22;28.40;35.20
38325;DHT22;24126;52.672;13.622;2022-09-01T10:37:50;28.40;35.20
38325;DHT22;24126;52.672;13.622;2022-09-01T10:42:46;28.60;34.30
38325;DHT22;24126;52.672;13.622;2022-09-01T10:45:31;28.70;34.80
38325;DHT22;24126;52.672;13.622;2022-09-01T10:48:21;29.00;34.90
38325;DHT22;24126;52.672;13.622;2022-09-01T10:50:50;29.20;34.80
38325;DHT22;24126;52.672;13.622;2022-09-01T10:53:36;29.50;35.00
38325;DHT22;24126;52.672;13.622;2022-09-01T10:56:17;29.70;34.20
38325;DHT22;24126;52.672;13.622;2022-09-01T10:58:56;29.90;33.10
38325;DHT22;24126;52.672;13.622;2022-09-01T11:04:09;30.20;32.10
38325;DHT22;24126;52.672;13.622;2022-09-01T11:15:03;29.00;32.10
38325;DHT22;24126;52.672;13.622;2022-09-01T11:17:31;29.00;33.10
38325;DHT22;24126;52.672;13.622;2022-09-01T11:20:08;29.00;34.30
38325;DHT22;24126;52.672;13.622;2022-09-01T11:22:37;28.90;34.70
38325;DHT22;24126;52.672;13.622;2022-09-01T11:30:18;28.20;36.40
38325;DHT22;24126;52.672;13.622;2022-09-01T11:32:48;28.10;36.90
38325;DHT22;24126;52.672;13.622;2022-09-01T11:35:18;28.10;37.50
38325;DHT22;24126;52.672;13.622;2022-09-01T11:37:47;28.30;37.00
38325;DHT22;24126;52.672;13.622;2022-09-01T11:40:26;28.20;36.80
38325;DHT22;24126;52.672;13.622;2022-09-01T11:42:53;28.10;36.80
38325;DHT22;24126;52.672;13.622;2022-09-01T11:45:23;27.90;37.30
38325;DHT22;24126;52.672;13.622;2022-09-01T11:47:57;27.80;37.30
38325;DHT22;24126;52.672;13.622;2022-09-01T11:50:26;27.60;37.70
38325;DHT22;24126;52.672;13.622;2022-09-01T11:53:04;27.50;37.60
38325;DHT22;24126;52.672;13.622;2022-09-01T11:55:34;27.40;37.60
38325;DHT22;24126;52.672;13.622;2022-09-01T11:58:02;27.20;37.70
38325;DHT22;24126;52.672;13.622;2022-09-01T12:00:31;27.10;37.80
38325;DHT22;24126;52.672;13.622;2022-09-01T12:02:59;27.00;38.00
38325;DHT22;24126;52.672;13.622;2022-09-01T12:05:27;26.90;38.20
38325;DHT22;24126;52.672;13.622;2022-09-01T12:07:55;26.90;38.60
38325;DHT22;24126;52.672;13.622;2022-09-01T12:13:26;27.20;38.60
38325;DHT22;24126;52.672;13.622;2022-09-01T12:15:56;27.40;38.30
38325;DHT22;24126;52.672;13.622;2022-09-01T12:18:24;27.60;36.80
38325;DHT22;24126;52.672;13.622;2022-09-01T12:20:53;27.70;36.70
38325;DHT22;24126;52.672;13.622;2022-09-01T12:25:52;27.90;37.10
38325;DHT22;24126;52.672;13.622;2022-09-01T12:28:21;28.10;36.70
38325;DHT22;24126;52.672;13.622;2022-09-01T12:30:49;28.10;36.30
38325;DHT22;24126;52.672;13.622;2022-09-01T12:33:18;28.00;36.10
38325;DHT22;24126;52.672;13.622;2022-09-01T12:35:46;27.90;36.00
38325;DHT22;24126;52.672;13.622;2022-09-01T12:40:47;27.50;36.20
38325;DHT22;24126;52.672;13.622;2022-09-01T12:43:28;27.40;36.20
38325;DHT22;24126;52.672;13.622;2022-09-01T12:45:55;27.40;36.30
38325;DHT22;24126;52.672;13.622;2022-09-01T12:48:32;27.30;36.60
38325;DHT22;24126;52.672;13.622;2022-09-01T12:51:00;27.10;36.30
38325;DHT22;24126;52.672;13.622;2022-09-01T12:53:29;26.90;36.50
38325;DHT22;24126;52.672;13.622;2022-09-01T12:56:04;26.70;36.80
38325;DHT22;24126;52.672;13.622;2022-09-01T12:58:32;26.60;37.10
38325;DHT22;24126;52.672;13.622;2022-09-01T13:03:28;26.40;37.30
38325;DHT22;24126;52.672;13.622;2022-09-01T13:05:56;26.30;37.50
38325;DHT22;24126;52.672;13.622;2022-09-01T13:08:26;26.30;37.50
38325;DHT22;24126;52.672;13.622;2022-09-01T13:10:55;26.40;37.90
38325;DHT22;24126;52.672;13.622;2022-09-01T13:13:24;26.40;37.60
38325;DHT22;24126;52.672;13.622;2022-09-01T13:15:53;26.50;37.40
38325;DHT22;24126;52.672;13.622;2022-09-01T13:18:22;26.50;37.20
38325;DHT22;24126;52.672;13.622;2022-09-01T13:20:50;26.50;36.70
38325;DHT22;24126;52.672;13.622;2022-09-01T13:23:17;26.60;37.70
38325;DHT22;24126;52.672;13.622;2022-09-01T13:25:45;26.60;37.00
38325;DHT22;24126;52.672;13.622;2022-09-01T13:28:12;26.50;36.50
38325;DHT22;24126;52.672;13.622;2022-09-01T13:30:42;26.60;36.80
38325;DHT22;24126;52.672;13.622;2022-09-01T13:33:09;26.50;36.50
38325;DHT22;24126;52.672;13.622;2022-09-01T13:35:37;26.50;36.20
38325;DHT22;24126;52.672;13.622;2022-09-01T13:38:05;26.40;36.40
38325;DHT22;24126;52.672;13.622;2022-09-01T13:40:32;26.40;36.30
38325;DHT22;24126;52.672;13.622;2022-09-01T13:42:59;26.40;36.60
38325;DHT22;24126;52.672;13.622;2022-09-01T13:45:29;26.40;37.10
38325;DHT22;24126;52.672;13.622;2022-09-01T13:47:56;26.50;37.60
38325;DHT22;24126;52.672;13.622;2022-09-01T13:50:24;26.60;36.90
38325;DHT22;24126;52.672;13.622;2022-09-01T13:52:53;26.60;36.50
38325;DHT22;24126;52.672;13.622;2022-09-01T13:55:25;26.60;37.10
38325;DHT22;24126;52.672;13.622;2022-09-01T13:57:52;26.70;36.70
38325;DHT22;24126;52.672;13.622;2022-09-01T14:00:21;26.90;37.00
38325;DHT22;24126;52.672;13.622;2022-09-01T14:02:50;27.10;36.90
38325;DHT22;24126;52.672;13.622;2022-09-01T14:05:19;27.20;36.10
38325;DHT22;24126;52.672;13.622;2022-09-01T14:07:47;27.20;35.00
38325;DHT22;24126;52.672;13.622;2022-09-01T14:10:15;27.20;35.20
38325;DHT22;24126;52.672;13.622;2022-09-01T14:12:43;27.20;35.40
38325;DHT22;24126;52.672;13.622;2022-09-01T14:15:10;27.10;35.10
38325;DHT22;24126;52.672;13.622;2022-09-01T14:17:38;27.10;35.50
38325;DHT22;24126;52.672;13.622;2022-09-01T14:20:07;27.10;35.20
38325;DHT22;24126;52.672;13.622;2022-09-01T14:22:35;27.00;35.70
38325;DHT22;24126;52.672;13.622;2022-09-01T14:25:03;26.90;36.00
38325;DHT22;24126;52.672;13.622;2022-09-01T14:27:30;26.80;36.20
38325;DHT22;24126;52.672;13.622;2022-09-01T14:29:58;26.80;36.40
38325;DHT22;24126;52.672;13.622;2022-09-01T14:32:26;26.80;36.60
38325;DHT22;24126;52.672;13.622;2022-09-01T14:34:54;26.70;36.10
38325;DHT22;24126;52.672;13.622;2022-09-01T14:37:22;26.70;36.30
38325;DHT22;24126;52.672;13.622;2022-09-01T14:39:50;26.60;36.50
38325;DHT22;24126;52.672;13.622;2022-09-01T14:42:17;26.50;36.70
38325;DHT22;24126;52.672;13.622;2022-09-01T14:44:45;26.50;36.70
38325;DHT22;24126;52.672;13.622;2022-09-01T14:47:13;26.50;36.50
38325;DHT22;24126;52.672;13.622;2022-09-01T14:49:42;26.50;37.00
38325;DHT22;24126;52.672;13.622;2022-09-01T14:52:09;26.50;37.00
38325;DHT22;24126;52.672;13.622;2022-09-01T14:54:38;26.50;36.90
38325;DHT22;24126;52.672;13.622;2022-09-01T14:57:06;26.50;37.00
38325;DHT22;24126;52.672;13.622;2022-09-01T14:59:34;26.50;36.70
38325;DHT22;24126;52.672;13.622;2022-09-01T15:02:01;26.50;36.50
38325;DHT22;24126;52.672;13.622;2022-09-01T15:04:28;26.50;36.20
38325;DHT22;24126;52.672;13.622;2022-09-01T15:06:56;26.50;36.50
38325;DHT22;24126;52.672;13.622;2022-09-01T15:09:23;26.40;36.30
38325;DHT22;24126;52.672;13.622;2022-09-01T15:11:50;26.40;36.30
38325;DHT22;24126;52.672;13.622;2022-09-01T15:14:18;26.30;36.40
38325;DHT22;24126;52.672;13.622;2022-09-01T15:16:45;26.30;36.50
38325;DHT22;24126;52.672;13.622;2022-09-01T15:19:13;26.20;36.00
38325;DHT22;24126;52.672;13.622;2022-09-01T15:21:40;26.20;36.20
38325;DHT22;24126;52.672;13.622;2022-09-01T15:24:08;26.30;36.30
38325;DHT22;24126;52.672;13.622;2022-09-01T15:26:36;26.30;36.40
38325;DHT22;24126;52.672;13.622;2022-09-01T15:29:05;26.30;36.60
38325;DHT22;24126;52.672;13.622;2022-09-01T15:31:38;26.40;36.30
38325;DHT22;24126;52.672;13.622;2022-09-01T15:34:06;26.40;36.30
38325;DHT22;24126;52.672;13.622;2022-09-01T15:36:34;26.30;36.10
38325;DHT22;24126;52.672;13.622;2022-09-01T15:39:01;26.30;36.40
38325;DHT22;24126;52.672;13.622;2022-09-01T15:41:29;26.20;36.50
38325;DHT22;24126;52.672;13.622;2022-09-01T15:43:57;26.10;36.70
38325;DHT22;24126;52.672;13.622;2022-09-01T15:46:24;26.10;36.60
38325;DHT22;24126;52.672;13.622;2022-09-01T15:49:00;26.00;36.30
38325;DHT22;24126;52.672;13.622;2022-09-01T15:53:57;25.80;36.60
38325;DHT22;24126;52.672;13.622;2022-09-01T15:56:25;25.70;36.80
38325;DHT22;24126;52.672;13.622;2022-09-01T15:58:52;25.70;37.20
38325;DHT22;24126;52.672;13.622;2022-09-01T16:01:20;25.60;37.30
38325;DHT22;24126;52.672;13.622;2022-09-01T16:03:48;25.60;38.00
38325;DHT22;24126;52.672;13.622;2022-09-01T16:06:15;25.60;38.50
38325;DHT22;24126;52.672;13.622;2022-09-01T16:08:42;25.50;39.00
38325;DHT22;24126;52.672;13.622;2022-09-01T16:11:09;25.60;39.50
38325;DHT22;24126;52.672;13.622;2022-09-01T16:13:38;25.50;39.50
38325;DHT22;24126;52.672;13.622;2022-09-01T16:18:42;25.40;39.60
38325;DHT22;24126;52.672;13.622;2022-09-01T16:23:42;25.20;40.00
38325;DHT22;24126;52.672;13.622;2022-09-01T16:26:10;25.20;40.40
38325;DHT22;24126;52.672;13.622;2022-09-01T16:28:38;25.10;40.30
38325;DHT22;24126;52.672;13.622;2022-09-01T16:31:09;25.10;40.40
38325;DHT22;24126;52.672;13.622;2022-09-01T16:33:36;25.00;40.40